Calico Rock, AR

12:16 AM CST on December 06, 2019 (GMT -0600)
Sugar Loaf | | Change Station

Elev 597 ft 36.09 °N, 92.15 °W | Updated 16 seconds ago

Overcast
Overcast
52.7 °F
Feels Like 52.7 °F
N
0.2
Wind Variable Wind from ENE
Gusts 1.1 mph

Today
High -- | Low -- °F
--% Chance of Precip.
Yesterday
High -- | Low -- °F
Precip. -- in
Pressure 29.98 in
Visibility 10.0 miles
Clouds Overcast 5000 ft
Dew Point 46 °F
Humidity 79%
Rainfall 0.00 in
Snow Depth Not available.
7:05 AM 4:53 PM
Waxing Gibbous, 68% visible
METAR KBPK 060553Z AUTO 16003KT 10SM OVC050 12/05 A2998 RMK AO2 SLP150 60000 T01220050 10139 20111 401720061 50005
Pressure 29.98 in
Visibility 10.0 miles
Clouds Overcast 5000 ft
Dew Point 46 °F
Humidity 79%
Rainfall 0.00 in
Snow Depth Not available.
7:05 AM 4:53 PM
Waxing Gibbous, 68% visible
METAR KBPK 060553Z AUTO 16003KT 10SM OVC050 12/05 A2998 RMK AO2 SLP150 60000 T01220050 10139 20111 401720061 50005

Get Severe Weather Alerts

Thanks for signing up!

Be on the lookout for a verification email in your inbox.

You'll start receiving the daily forecast at 6 AM.

×

10-Day Weather Forecast

Almanac

Astronomy

Dec. 06, 2019 Rise Set
Actual Time
Civil Twilight
Nautical Twilight
Astronomical Twilight
Moon
Length of Visible Light
Length of Day
Tomorrow will be .
, % of the Moon is Illuminated

Today's Extremes

State Highs State Lows

Community

WunderPhotos

Category 6

Welcome to Category 6. This is the collective home for Weather Underground's featured writeups by Dr. Jeff Masters (right), Bob Henson (left), Chris Burt, and other regular contributors.

Nearby

Air Quality

  Air Quality AQ Index Pollutant
Not available.

Snow Depth

Station Depth Elevation

Earthquake Activity

City Distance Mag. Time & Date
Minimum magnitude displayed is 2.5.

Coastal Water Temperatures

Place Temperature

Stations

Nearby Weather Stations

Station Location Temp. Windchill Dew Point Humidity Wind Precip. Elev Updated Type
                   

Watches & Warnings

There are currently no watches in effect.